Time;durP1;ratioP1;P1;durP2;ratioP2;P2;SDS_P1;SDS_P2;PMS_P1;PMS_P2;Temp;Humidity;BMP_temperature;BMP_pressure;BME280_temperature;BME280_humidity;BME280_pressure;Samples;Min_cycle;Max_cycle;Signal;HPM_P1;HPM_P2
2021/05/06 00:33:56;;;;;;;3.67;1.48;;;7.60;78.90;;;;;;5052209;28;20049;-76
2021/05/06 00:36:22;;;;;;;6.93;2.67;;;7.60;78.80;;;;;;5072585;28;20045;-76
2021/05/06 00:38:52;;;;;;;5.15;2.30;;;7.60;79.10;;;;;;5053893;28;20036;-76
2021/05/06 00:57:24;;;;;;;4.70;1.85;;;7.30;81.70;;;;;;5051254;28;20398;-75
2021/05/06 01:00:18;;;;;;;8.98;3.00;;;7.30;81.80;;;;;;5053788;28;20041;-76
2021/05/06 01:05:37;;;;;;;6.00;2.97;;;7.20;82.60;;;;;;5064972;28;20489;-75
2021/05/06 01:11:14;;;;;;;54.70;30.38;;;7.20;84.00;;;;;;5035908;28;20057;-75
2021/05/06 01:13:43;;;;;;;24.17;12.23;;;7.20;83.90;;;;;;5056221;28;20041;-76
2021/05/06 01:16:09;;;;;;;28.40;13.25;;;7.10;84.80;;;;;;5051404;28;20048;-75
2021/05/06 01:18:36;;;;;;;20.10;10.07;;;7.10;85.50;;;;;;5052122;28;20029;-76
2021/05/06 01:21:04;;;;;;;88.90;40.13;;;7.00;85.80;;;;;;5067771;28;20045;-76
2021/05/06 01:23:33;;;;;;;49.42;20.77;;;7.00;86.10;;;;;;5065849;28;20052;-76
2021/05/06 01:26:05;;;;;;;90.10;38.38;;;7.00;86.70;;;;;;5064598;28;20036;-76
2021/05/06 01:28:36;;;;;;;100.50;44.95;;;6.90;87.10;;;;;;5056949;28;20045;-76
2021/05/06 01:31:11;;;;;;;63.55;29.55;;;6.90;87.80;;;;;;5063408;28;20052;-76
2021/05/06 01:33:54;;;;;;;91.35;42.40;;;6.80;88.50;;;;;;5054446;28;20363;-76
2021/05/06 01:36:27;;;;;;;75.60;38.58;;;6.80;89.70;;;;;;5075727;28;20366;-76
2021/05/06 01:59:53;;;;;;;20.33;8.77;;;6.30;96.10;;;;;;5024666;28;20037;-76
2021/05/06 02:02:20;;;;;;;13.43;6.47;;;6.30;96.30;;;;;;5024950;28;20064;-76
2021/05/06 02:04:46;;;;;;;37.08;17.33;;;6.20;97.00;;;;;;5049278;28;20041;-76
2021/05/06 02:07:14;;;;;;;21.02;9.98;;;6.20;97.80;;;;;;5070216;28;20044;-76
2021/05/06 02:09:49;;;;;;;22.88;11.70;;;6.20;98.50;;;;;;5073241;28;20465;-76
2021/05/06 02:12:19;;;;;;;26.20;14.95;;;6.20;98.90;;;;;;5058016;28;20045;-76
2021/05/06 02:14:58;;;;;;;14.35;6.47;;;6.20;99.20;;;;;;5055417;28;20037;-75
2021/05/06 02:17:24;;;;;;;14.18;6.65;;;6.20;99.70;;;;;;5063900;28;20035;-76
2021/05/06 02:19:52;;;;;;;15.93;8.45;;;6.20;99.90;;;;;;5062712;28;20521;-76
2021/05/06 02:22:20;;;;;;;30.15;18.30;;;6.10;99.90;;;;;;5071759;28;20423;-76
2021/05/06 02:24:48;;;;;;;17.77;11.30;;;6.10;99.90;;;;;;5069073;28;20041;-76
2021/05/06 02:27:15;;;;;;;10.20;4.78;;;6.00;99.90;;;;;;5055044;28;20040;-76
2021/05/06 02:29:41;;;;;;;12.10;6.95;;;6.00;99.90;;;;;;5055402;28;20041;-76
2021/05/06 02:32:08;;;;;;;9.88;5.35;;;5.90;99.90;;;;;;5055003;28;20390;-76
2021/05/06 02:34:34;;;;;;;8.63;4.00;;;5.90;99.90;;;;;;5055118;28;20041;-76
2021/05/06 02:37:01;;;;;;;8.88;3.70;;;5.90;99.90;;;;;;5054672;28;20037;-76
2021/05/06 02:39:27;;;;;;;14.93;5.35;;;5.80;99.90;;;;;;5054770;28;20041;-76
2021/05/06 02:41:54;;;;;;;8.20;4.00;;;5.90;99.90;;;;;;5054274;28;20037;-76
2021/05/06 02:44:20;;;;;;;13.13;4.88;;;5.90;99.90;;;;;;5055035;28;20049;-75
2021/05/06 02:46:46;;;;;;;8.15;4.22;;;5.90;99.90;;;;;;5054607;28;20462;-75
2021/05/06 02:49:12;;;;;;;10.95;4.25;;;6.00;99.90;;;;;;5055047;28;20382;-75
2021/05/06 02:51:49;;;;;;;8.15;3.58;;;6.00;99.90;;;;;;5054517;28;20055;-76
2021/05/06 02:54:16;;;;;;;8.98;3.47;;;6.00;99.90;;;;;;5054668;28;20033;-75
2021/05/06 03:04:42;;;;;;;6.88;2.78;;;6.30;99.90;;;;;;5067903;28;20474;-76
2021/05/06 03:07:11;;;;;;;8.63;3.28;;;6.40;99.90;;;;;;5064256;28;20474;-75
2021/05/06 03:22:49;;;;;;;7.88;2.70;;;6.60;99.90;;;;;;5061215;28;20036;-76
2021/05/06 03:25:18;;;;;;;7.75;2.60;;;6.70;99.90;;;;;;5054036;28;20406;-76
2021/05/06 03:27:57;;;;;;;5.18;2.92;;;6.80;99.90;;;;;;5058358;28;20028;-77
2021/05/06 03:43:49;;;;;;;5.50;2.50;;;6.90;99.00;;;;;;5072753;28;20043;-76
2021/05/06 04:18:36;;;;;;;6.50;2.97;;;7.10;97.10;;;;;;5054176;28;20037;-75
2021/05/06 04:27:03;;;;;;;8.30;3.70;;;7.10;96.80;;;;;;5053111;28;20040;-77
2021/05/06 04:37:34;;;;;;;11.57;2.70;;;7.20;94.50;;;;;;5056480;28;20373;-77
2021/05/06 04:46:00;;;;;;;4.93;1.70;;;7.30;92.90;;;;;;5052261;28;20041;-77
2021/05/06 04:54:02;;;;;;;5.90;1.65;;;7.40;91.20;;;;;;5052416;28;20049;-75
2021/05/06 05:06:57;;;;;;;5.95;1.60;;;7.20;94.20;;;;;;5051900;28;20041;-76
2021/05/06 05:12:09;;;;;;;4.95;1.45;;;7.10;96.20;;;;;;5051870;28;20413;-76
2021/05/06 05:25:04;;;;;;;5.07;1.60;;;7.20;98.20;;;;;;5051740;28;20481;-76
2021/05/06 05:27:31;;;;;;;6.35;2.15;;;7.20;98.50;;;;;;5051932;28;20044;-76
2021/05/06 05:29:57;;;;;;;3.80;1.58;;;7.10;98.30;;;;;;5051483;28;20036;-76
2021/05/06 05:32:24;;;;;;;5.85;1.98;;;7.10;97.00;;;;;;5051714;28;20049;-76
2021/05/06 05:37:19;;;;;;;5.68;1.85;;;7.10;98.10;;;;;;5052042;28;20463;-76
2021/05/06 05:40:08;;;;;;;3.75;1.63;;;7.10;97.90;;;;;;5050407;28;20041;-77
2021/05/06 05:56:03;;;;;;;4.60;2.28;;;6.80;99.90;;;;;;5067163;28;20036;-76
2021/05/06 05:58:30;;;;;;;7.93;2.45;;;6.70;99.90;;;;;;5063677;28;20463;-77
2021/05/06 06:00:56;;;;;;;4.72;2.08;;;6.60;99.90;;;;;;5063077;28;20040;-77
2021/05/06 06:03:22;;;;;;;6.93;2.13;;;6.50;99.90;;;;;;5059429;28;20466;-77
2021/05/06 06:05:53;;;;;;;8.68;2.47;;;6.50;99.90;;;;;;5060226;28;20371;-77
2021/05/06 06:08:25;;;;;;;9.50;2.83;;;6.40;99.90;;;;;;5055576;28;20028;-76
2021/05/06 06:10:51;;;;;;;7.65;3.15;;;6.30;99.90;;;;;;5063452;28;20040;-77
2021/05/06 06:13:18;;;;;;;5.40;2.80;;;6.30;99.90;;;;;;5051089;28;20045;-77
2021/05/06 06:18:34;;;;;;;7.97;3.00;;;6.40;99.90;;;;;;5062364;28;20063;-78
2021/05/06 06:21:07;;;;;;;6.97;3.35;;;6.40;99.90;;;;;;5060496;28;20032;-77
2021/05/06 06:23:33;;;;;;;9.55;3.20;;;6.40;99.90;;;;;;5054507;28;20049;-79
2021/05/06 06:25:59;;;;;;;27.25;15.45;;;6.40;99.90;;;;;;5054777;28;20048;-78
2021/05/06 06:28:33;;;;;;;16.50;10.65;;;6.40;99.90;;;;;;5062988;28;20379;-78
2021/05/06 06:31:00;;;;;;;36.35;20.77;;;6.40;99.90;;;;;;5055121;28;20048;-79
2021/05/06 06:33:26;;;;;;;45.60;23.27;;;6.40;99.90;;;;;;5055375;28;20052;-79
2021/05/06 06:35:53;;;;;;;303.20;160.32;;;6.40;99.90;;;;;;5058078;28;20035;-79
2021/05/06 06:38:19;;;;;;;367.15;198.05;;;6.40;99.90;;;;;;5067686;28;20355;-79
2021/05/06 06:40:45;;;;;;;83.20;41.55;;;6.40;99.90;;;;;;5054999;28;20033;-79
2021/05/06 06:43:12;;;;;;;31.70;13.93;;;6.40;99.90;;;;;;5054476;28;20028;-78
2021/05/06 06:45:38;;;;;;;29.08;8.43;;;6.50;99.90;;;;;;5057440;28;20050;-80
2021/05/06 06:48:05;;;;;;;28.30;14.73;;;6.50;99.90;;;;;;5072796;28;20028;-79
2021/05/06 06:50:31;;;;;;;18.65;11.23;;;6.50;99.90;;;;;;5055072;28;20044;-80
2021/05/06 06:52:58;;;;;;;33.28;17.75;;;6.50;99.90;;;;;;5054570;28;20037;-79
2021/05/06 06:55:24;;;;;;;42.80;23.45;;;6.50;99.90;;;;;;5068463;28;20044;-80
2021/05/06 06:57:51;;;;;;;13.98;7.65;;;6.50;99.90;;;;;;5054673;28;20052;-78
2021/05/06 07:00:17;;;;;;;21.65;10.88;;;6.40;99.90;;;;;;5072416;28;20457;-78
2021/05/06 07:02:44;;;;;;;26.58;14.75;;;6.50;99.90;;;;;;5067067;28;20037;-79
2021/05/06 07:05:10;;;;;;;21.77;13.13;;;6.50;99.90;;;;;;5053564;28;20041;-78
2021/05/06 07:07:37;;;;;;;25.35;14.73;;;6.50;99.90;;;;;;5054321;28;20056;-79
2021/05/06 07:10:03;;;;;;;18.90;9.27;;;6.60;99.90;;;;;;5053571;28;20088;-78
2021/05/06 07:12:31;;;;;;;29.92;18.45;;;6.50;99.90;;;;;;5054559;28;20438;-78
2021/05/06 07:14:57;;;;;;;25.58;14.52;;;6.50;99.90;;;;;;5055111;28;20025;-81
2021/05/06 07:17:23;;;;;;;13.35;7.15;;;6.60;99.90;;;;;;5068250;28;20033;-78
2021/05/06 07:19:50;;;;;;;20.45;13.38;;;6.50;99.90;;;;;;5054358;28;20025;-78
2021/05/06 07:22:16;;;;;;;24.40;11.98;;;6.60;99.90;;;;;;5053393;28;20037;-77
2021/05/06 07:24:42;;;;;;;18.33;8.20;;;6.60;99.90;;;;;;5054068;28;20033;-79
2021/05/06 07:27:09;;;;;;;13.88;8.10;;;6.60;99.90;;;;;;5053757;28;20482;-79
2021/05/06 07:29:35;;;;;;;38.42;27.10;;;6.70;99.90;;;;;;5054090;28;20036;-79
2021/05/06 07:32:01;;;;;;;20.73;13.05;;;6.70;99.90;;;;;;5052835;28;20052;-79
2021/05/06 07:34:27;;;;;;;17.98;9.88;;;6.60;99.90;;;;;;5053968;28;20056;-78
2021/05/06 07:36:54;;;;;;;14.27;8.32;;;6.60;99.90;;;;;;5053568;28;20041;-78
2021/05/06 07:39:20;;;;;;;18.35;10.02;;;6.60;99.90;;;;;;5053973;28;20398;-79
2021/05/06 07:41:46;;;;;;;15.23;10.07;;;6.70;99.90;;;;;;5068087;28;20040;-79
2021/05/06 07:44:13;;;;;;;13.52;7.97;;;6.70;99.90;;;;;;5057976;28;20045;-79
2021/05/06 07:46:39;;;;;;;9.43;6.55;;;6.80;99.90;;;;;;5065085;28;20025;-79
2021/05/06 07:49:05;;;;;;;13.18;7.53;;;6.80;99.90;;;;;;5058871;28;20028;-80
2021/05/06 07:51:32;;;;;;;15.13;8.82;;;6.90;99.90;;;;;;5069309;28;22220;-78
2021/05/06 07:54:05;;;;;;;18.50;9.77;;;7.00;99.90;;;;;;5056338;28;20032;-78
2021/05/06 07:56:32;;;;;;;18.58;12.52;;;7.00;99.90;;;;;;5071092;28;20028;-79
2021/05/06 07:58:58;;;;;;;20.60;12.43;;;7.10;99.90;;;;;;5052978;28;20083;-80
2021/05/06 08:01:24;;;;;;;8.55;6.63;;;7.00;99.90;;;;;;5061768;28;20036;-80
2021/05/06 08:03:52;;;;;;;11.20;6.40;;;7.10;99.90;;;;;;5066050;28;20056;-79
2021/05/06 08:06:20;;;;;;;19.33;12.50;;;7.10;99.90;;;;;;5061420;28;20036;-80
2021/05/06 08:08:47;;;;;;;18.27;10.10;;;7.10;99.90;;;;;;5053490;28;20044;-80
2021/05/06 08:11:13;;;;;;;9.85;4.47;;;7.20;99.90;;;;;;5063965;28;20317;-80
2021/05/06 08:13:39;;;;;;;21.52;9.13;;;7.10;99.90;;;;;;5060054;28;20066;-79
2021/05/06 08:16:06;;;;;;;23.70;14.48;;;7.30;99.90;;;;;;5055578;28;20033;-79
2021/05/06 08:18:32;;;;;;;7.03;3.20;;;7.60;99.90;;;;;;5053081;28;20450;-79
2021/05/06 08:20:59;;;;;;;12.77;6.20;;;7.70;99.90;;;;;;5052418;28;20029;-79
2021/05/06 08:23:25;;;;;;;19.10;8.70;;;7.70;99.90;;;;;;5053146;28;20394;-80
2021/05/06 08:25:52;;;;;;;14.05;7.82;;;7.80;99.90;;;;;;5052887;28;20370;-79
2021/05/06 08:28:18;;;;;;;7.45;3.85;;;8.00;99.90;;;;;;5063107;28;20351;-80
2021/05/06 08:30:44;;;;;;;16.45;7.25;;;7.90;99.90;;;;;;5065944;28;20461;-80
2021/05/06 08:33:11;;;;;;;6.90;4.32;;;8.20;99.90;;;;;;5050913;28;20044;-79
2021/05/06 08:35:37;;;;;;;26.60;15.85;;;8.40;99.90;;;;;;5052817;28;20382;-79
2021/05/06 08:38:04;;;;;;;12.93;7.07;;;8.10;99.90;;;;;;5051570;28;20059;-78
2021/05/06 08:40:30;;;;;;;9.13;5.22;;;8.20;99.90;;;;;;5068523;28;20044;-79
2021/05/06 08:42:57;;;;;;;10.85;5.55;;;8.40;99.90;;;;;;5052313;28;20029;-78
2021/05/06 08:45:28;;;;;;;6.68;3.05;;;8.40;99.90;;;;;;5063457;28;20039;-79
2021/05/06 08:47:56;;;;;;;8.20;4.95;;;8.30;99.90;;;;;;5057570;28;20025;-78
2021/05/06 08:50:22;;;;;;;9.60;3.38;;;8.20;99.90;;;;;;5052678;28;20021;-78
2021/05/06 08:52:49;;;;;;;8.20;4.47;;;8.30;99.90;;;;;;5060355;28;20071;-79
2021/05/06 08:55:17;;;;;;;7.90;3.55;;;8.40;99.90;;;;;;5067633;28;20039;-79
2021/05/06 08:57:43;;;;;;;7.03;2.40;;;8.30;99.90;;;;;;5052138;28;20025;-79
2021/05/06 09:00:11;;;;;;;5.05;3.13;;;8.30;99.90;;;;;;5051958;28;20043;-78
2021/05/06 09:02:45;;;;;;;11.45;6.65;;;8.10;99.90;;;;;;5068146;28;20044;-79
2021/05/06 09:05:12;;;;;;;9.25;3.80;;;8.10;99.90;;;;;;5062171;28;20047;-78
2021/05/06 09:07:45;;;;;;;6.43;2.42;;;8.20;99.90;;;;;;5061925;28;20028;-78
2021/05/06 09:10:34;;;;;;;10.68;2.92;;;8.10;99.90;;;;;;5055290;28;20044;-79
2021/05/06 09:13:01;;;;;;;10.82;4.13;;;8.30;99.90;;;;;;5067347;28;20043;-78
2021/05/06 09:15:28;;;;;;;7.95;4.60;;;8.40;99.90;;;;;;5056307;28;20414;-79
2021/05/06 09:17:54;;;;;;;9.40;4.38;;;8.40;99.90;;;;;;5076849;28;20049;-79
2021/05/06 09:20:26;;;;;;;10.57;3.70;;;8.50;99.90;;;;;;5080359;28;20036;-79
2021/05/06 09:22:55;;;;;;;6.60;3.10;;;8.70;99.90;;;;;;5059043;28;20033;-78
2021/05/06 09:25:23;;;;;;;6.25;3.10;;;8.80;99.90;;;;;;5051962;28;20463;-79
2021/05/06 09:28:07;;;;;;;8.25;4.05;;;9.20;99.90;;;;;;5054643;28;20029;-79
2021/05/06 09:30:47;;;;;;;6.10;2.97;;;9.40;99.90;;;;;;5050849;28;20037;-78
2021/05/06 09:33:14;;;;;;;6.80;3.77;;;9.30;99.90;;;;;;5051342;28;20053;-79
2021/05/06 09:35:48;;;;;;;7.85;3.03;;;9.10;99.90;;;;;;5052258;28;20283;-80
2021/05/06 09:38:25;;;;;;;6.40;3.15;;;9.00;99.90;;;;;;5052242;28;20648;-76
2021/05/06 09:40:52;;;;;;;8.00;3.28;;;9.00;99.90;;;;;;5051975;28;20025;-78
2021/05/06 09:43:33;;;;;;;5.43;3.10;;;9.00;99.90;;;;;;5051258;28;20037;-79
2021/05/06 09:46:00;;;;;;;6.40;3.15;;;9.00;99.90;;;;;;5051644;28;20037;-79
2021/05/06 09:48:27;;;;;;;6.13;2.58;;;9.00;99.90;;;;;;5052057;28;20037;-78
2021/05/06 09:51:00;;;;;;;6.85;3.55;;;9.10;99.90;;;;;;5055100;28;20405;-78
2021/05/06 09:53:31;;;;;;;6.47;3.03;;;9.00;99.90;;;;;;5060908;28;20048;-78
2021/05/06 09:55:59;;;;;;;6.40;3.13;;;9.10;99.90;;;;;;5055260;28;20049;-78
2021/05/06 09:58:30;;;;;;;6.07;2.85;;;9.40;99.90;;;;;;5055843;28;20029;-78
2021/05/06 10:00:58;;;;;;;6.45;3.28;;;9.90;99.90;;;;;;5055708;28;20052;-78
2021/05/06 10:03:33;;;;;;;7.40;3.35;;;10.50;99.90;;;;;;5055463;28;20048;-77
2021/05/06 10:06:21;;;;;;;6.10;2.80;;;10.90;98.30;;;;;;5064052;28;20048;-78
2021/05/06 10:08:47;;;;;;;6.20;3.08;;;11.50;97.10;;;;;;5065154;28;20485;-78
2021/05/06 10:11:17;;;;;;;5.38;2.63;;;11.50;96.30;;;;;;5055043;28;20028;-79
2021/05/06 10:13:46;;;;;;;6.97;2.97;;;11.60;93.50;;;;;;5055334;28;20510;-79
2021/05/06 10:16:14;;;;;;;5.25;3.15;;;11.50;95.80;;;;;;5054779;28;20284;-79
2021/05/06 10:18:44;;;;;;;6.43;2.42;;;11.50;94.30;;;;;;5055302;28;20406;-79
2021/05/06 10:21:13;;;;;;;5.82;3.00;;;11.40;93.20;;;;;;5054830;28;20045;-79
2021/05/06 10:23:42;;;;;;;5.38;2.78;;;11.30;94.80;;;;;;5055052;28;20033;-79
2021/05/06 10:26:09;;;;;;;5.63;2.95;;;11.60;95.30;;;;;;5059340;28;20041;-78
2021/05/06 10:28:36;;;;;;;8.13;3.20;;;11.70;93.60;;;;;;5067531;28;20377;-79
2021/05/06 10:31:05;;;;;;;5.25;2.72;;;11.70;92.00;;;;;;5054471;28;20028;-78
2021/05/06 10:33:32;;;;;;;7.50;3.00;;;11.20;92.10;;;;;;5062251;28;20064;-78
2021/05/06 10:35:59;;;;;;;3.75;2.55;;;11.40;92.80;;;;;;5054495;28;20029;-77
2021/05/06 10:38:34;;;;;;;7.35;2.90;;;11.80;92.10;;;;;;5054528;28;20033;-77
2021/05/06 10:41:22;;;;;;;4.18;2.72;;;11.80;90.50;;;;;;5054450;28;20454;-77
2021/05/06 10:44:00;;;;;;;8.93;3.35;;;11.70;91.40;;;;;;5059599;28;20035;-78
2021/05/06 10:49:43;;;;;;;6.45;3.33;;;11.50;90.90;;;;;;5047695;28;20040;-78
2021/05/06 10:52:11;;;;;;;6.20;2.85;;;11.40;91.30;;;;;;5067266;28;20459;-78
2021/05/06 10:54:40;;;;;;;4.80;2.30;;;11.60;91.20;;;;;;5061828;28;20040;-78
2021/05/06 10:57:16;;;;;;;5.65;3.00;;;11.90;90.50;;;;;;5063568;28;20037;-78
2021/05/06 10:59:46;;;;;;;6.35;3.03;;;12.00;85.00;;;;;;5054438;28;20387;-78
2021/05/06 11:02:33;;;;;;;5.65;2.45;;;12.20;82.20;;;;;;5060942;28;20029;-78
2021/05/06 11:05:22;;;;;;;6.63;3.22;;;12.30;82.10;;;;;;5059940;28;20482;-78
2021/05/06 11:08:07;;;;;;;3.92;2.42;;;12.40;83.00;;;;;;5054424;28;20033;-78
2021/05/06 11:10:43;;;;;;;4.40;3.78;;;12.30;80.30;;;;;;5054133;28;20033;-77
2021/05/06 11:13:09;;;;;;;7.88;3.65;;;11.90;84.60;;;;;;5054608;28;20425;-77
2021/05/06 11:15:37;;;;;;;4.43;2.38;;;11.60;85.40;;;;;;5066666;28;20047;-77
2021/05/06 11:18:05;;;;;;;6.45;3.33;;;11.60;84.40;;;;;;5063114;28;20033;-78
2021/05/06 11:20:31;;;;;;;7.85;3.50;;;11.50;84.20;;;;;;5053971;28;20045;-78
2021/05/06 11:23:00;;;;;;;6.28;3.33;;;11.10;84.80;;;;;;5053714;28;20049;-77
2021/05/06 11:25:30;;;;;;;6.10;3.03;;;10.50;89.00;;;;;;5054134;28;20033;-79
2021/05/06 11:28:00;;;;;;;6.70;3.70;;;10.40;91.00;;;;;;5060887;28;20033;-76
2021/05/06 11:30:46;;;;;;;7.70;4.80;;;10.20;91.40;;;;;;5054955;28;20044;-78
2021/05/06 11:33:27;;;;;;;7.28;4.78;;;10.10;92.00;;;;;;5053812;28;20382;-78
2021/05/06 11:36:20;;;;;;;18.23;8.82;;;10.00;93.70;;;;;;5071126;28;20055;-78
2021/05/06 11:38:55;;;;;;;9.73;7.22;;;10.10;95.30;;;;;;5053985;28;20029;-79
2021/05/06 11:41:28;;;;;;;13.98;7.50;;;10.20;93.90;;;;;;5053547;28;20056;-79
2021/05/06 11:43:58;;;;;;;19.00;10.70;;;10.30;93.40;;;;;;5064653;28;20041;-80
2021/05/06 11:46:35;;;;;;;10.25;6.10;;;10.50;92.90;;;;;;5063536;28;20033;-78
2021/05/06 11:49:04;;;;;;;12.02;7.60;;;10.50;93.30;;;;;;5060865;28;20350;-77
2021/05/06 11:51:42;;;;;;;8.65;5.45;;;10.70;92.60;;;;;;5053789;28;20028;-78
2021/05/06 11:54:23;;;;;;;13.43;7.53;;;10.80;92.30;;;;;;5052888;28;20053;-77
2021/05/06 11:56:53;;;;;;;14.55;8.48;;;10.80;92.30;;;;;;5053718;28;20044;-78
2021/05/06 11:59:24;;;;;;;12.77;4.63;;;10.60;93.30;;;;;;5053703;28;20048;-78
2021/05/06 12:01:52;;;;;;;13.65;8.85;;;10.80;94.00;;;;;;5054908;28;20458;-78
2021/05/06 12:04:34;;;;;;;6.53;3.97;;;10.80;92.70;;;;;;5053646;28;20060;-79
2021/05/06 12:07:16;;;;;;;4.88;2.78;;;10.60;91.20;;;;;;5053128;28;20374;-79
2021/05/06 12:09:42;;;;;;;16.00;10.52;;;10.50;91.50;;;;;;5053758;28;20040;-78
2021/05/06 12:12:09;;;;;;;8.13;3.92;;;10.60;91.50;;;;;;5068966;28;20033;-78
2021/05/06 12:14:40;;;;;;;7.97;5.38;;;10.60;91.40;;;;;;5061772;28;20040;-78
2021/05/06 12:17:08;;;;;;;7.65;5.35;;;10.90;91.00;;;;;;5059089;28;20040;-78
2021/05/06 12:19:44;;;;;;;6.95;3.20;;;10.90;90.80;;;;;;5053077;28;20033;-78
2021/05/06 12:22:11;;;;;;;13.13;5.25;;;10.90;91.10;;;;;;5052552;28;20496;-78
2021/05/06 12:24:44;;;;;;;8.00;4.78;;;10.80;91.40;;;;;;5053047;28;20474;-78
2021/05/06 12:27:19;;;;;;;8.50;3.60;;;10.60;94.00;;;;;;5052709;28;20032;-78
2021/05/06 12:29:48;;;;;;;9.63;5.45;;;10.60;96.30;;;;;;5052465;28;20048;-76
2021/05/06 12:32:19;;;;;;;21.83;14.77;;;10.60;96.80;;;;;;5064428;28;20052;-76
2021/05/06 12:34:45;;;;;;;9.13;4.70;;;10.30;99.40;;;;;;5059033;28;20044;-77
2021/05/06 12:37:12;;;;;;;13.70;6.80;;;10.00;99.90;;;;;;5057549;28;20394;-78
2021/05/06 12:39:42;;;;;;;13.23;7.07;;;9.90;99.90;;;;;;5065098;28;20041;-79
2021/05/06 12:42:09;;;;;;;8.88;4.50;;;9.70;99.90;;;;;;5060828;28;20056;-78
2021/05/06 12:44:44;;;;;;;10.75;5.45;;;9.70;99.90;;;;;;5065737;28;20486;-78
2021/05/06 12:47:11;;;;;;;5.50;4.28;;;9.60;99.90;;;;;;5051875;28;20474;-78
2021/05/06 12:49:37;;;;;;;7.95;4.53;;;9.60;99.90;;;;;;5052581;28;20024;-78
2021/05/06 12:52:03;;;;;;;8.65;3.95;;;9.40;99.90;;;;;;5059615;28;20036;-78
2021/05/06 12:54:34;;;;;;;9.88;4.55;;;9.50;99.90;;;;;;5057018;28;20053;-79
2021/05/06 12:57:16;;;;;;;9.65;6.72;;;9.60;99.90;;;;;;5060104;28;20383;-77
2021/05/06 12:59:48;;;;;;;10.75;6.65;;;9.30;99.90;;;;;;5058125;28;20390;-78
2021/05/06 13:02:16;;;;;;;15.65;10.80;;;9.30;99.90;;;;;;5051143;28;20045;-79
2021/05/06 13:04:51;;;;;;;14.15;7.22;;;9.10;99.90;;;;;;5052227;28;20386;-78
2021/05/06 13:07:19;;;;;;;23.02;13.98;;;9.10;99.90;;;;;;5052000;28;20470;-78
2021/05/06 13:09:50;;;;;;;11.85;7.30;;;9.00;99.90;;;;;;5052448;28;20040;-79
2021/05/06 13:12:25;;;;;;;11.25;6.75;;;8.80;99.90;;;;;;5051795;28;20068;-79
2021/05/06 13:15:05;;;;;;;10.85;7.32;;;8.80;99.90;;;;;;5051030;28;20053;-80
2021/05/06 13:17:35;;;;;;;14.27;7.32;;;8.80;99.90;;;;;;5052041;28;20489;-79
2021/05/06 13:20:22;;;;;;;12.40;7.30;;;8.80;99.90;;;;;;5051735;28;20033;-79
2021/05/06 13:23:04;;;;;;;11.30;7.72;;;9.00;99.90;;;;;;5064413;28;20028;-79
2021/05/06 13:25:45;;;;;;;9.77;6.38;;;9.00;99.90;;;;;;5055386;28;20033;-78
2021/05/06 13:28:12;;;;;;;;;;;9.20;99.90;;;;;;5060347;28;20033;-78
2021/05/06 13:30:39;;;;;;;11.25;6.00;;;9.20;99.90;;;;;;5056318;28;19926;-80
2021/05/06 13:33:21;;;;;;;10.90;6.32;;;9.10;99.90;;;;;;5053895;28;20049;-78
2021/05/06 13:36:08;;;;;;;10.70;6.22;;;9.10;99.90;;;;;;5070173;28;20036;-79
2021/05/06 13:38:51;;;;;;;12.50;6.35;;;9.20;99.90;;;;;;5055282;28;20024;-79
2021/05/06 13:41:19;;;;;;;10.73;6.20;;;9.20;99.90;;;;;;5062861;28;20041;-77
2021/05/06 13:43:46;;;;;;;9.63;7.07;;;9.20;99.90;;;;;;5052215;28;20045;-79
2021/05/06 13:46:14;;;;;;;8.52;5.70;;;9.30;99.90;;;;;;5051311;28;20040;-79
2021/05/06 13:48:40;;;;;;;10.88;5.45;;;9.40;99.90;;;;;;5070905;28;20032;-80
2021/05/06 13:51:11;;;;;;;9.23;4.63;;;9.40;99.90;;;;;;5050640;28;20025;-80
2021/05/06 13:53:39;;;;;;;6.35;3.58;;;9.50;99.90;;;;;;5051219;28;20048;-78
2021/05/06 13:56:06;;;;;;;10.32;3.88;;;9.50;99.90;;;;;;5062448;28;20043;-78
2021/05/06 13:58:33;;;;;;;6.57;3.47;;;9.40;99.90;;;;;;5058461;28;20040;-80
2021/05/06 14:01:05;;;;;;;3.53;1.77;;;9.40;99.90;;;;;;5051474;28;20029;-78
2021/05/06 14:03:32;;;;;;;3.63;1.77;;;9.30;99.90;;;;;;5066677;28;20037;-81
2021/05/06 14:05:59;;;;;;;3.38;1.65;;;9.20;99.90;;;;;;5069212;28;20450;-81
2021/05/06 14:08:29;;;;;;;7.45;4.47;;;9.30;99.90;;;;;;5067102;28;20044;-81
2021/05/06 14:10:56;;;;;;;98.18;41.72;;;9.30;99.90;;;;;;5065928;28;20036;-81
2021/05/06 14:13:26;;;;;;;135.48;53.55;;;9.20;99.90;;;;;;5069248;28;20031;-80
2021/05/06 14:15:54;;;;;;;54.40;21.90;;;9.20;99.90;;;;;;5066656;28;20033;-80
2021/05/06 14:18:21;;;;;;;95.63;36.63;;;9.10;99.90;;;;;;5068860;28;20033;-81
2021/05/06 14:20:48;;;;;;;27.85;11.60;;;9.20;99.90;;;;;;5069012;28;20357;-80
2021/05/06 14:23:17;;;;;;;71.20;29.05;;;9.20;99.90;;;;;;5067202;28;20033;-79
2021/05/06 14:25:44;;;;;;;35.83;15.98;;;8.90;99.90;;;;;;5067626;28;20481;-82
2021/05/06 14:28:10;;;;;;;186.15;81.55;;;8.90;99.90;;;;;;5063782;28;20051;-79
2021/05/06 14:30:37;;;;;;;157.32;69.35;;;9.00;99.90;;;;;;5067745;28;20047;-82
2021/05/06 14:33:04;;;;;;;16.80;8.82;;;9.30;99.90;;;;;;5066351;28;20048;-79
2021/05/06 14:35:31;;;;;;;50.53;23.42;;;9.10;99.90;;;;;;5069153;28;20041;-78
2021/05/06 14:37:58;;;;;;;122.03;52.95;;;8.90;99.90;;;;;;5072104;28;20509;-79
2021/05/06 14:40:24;;;;;;;58.25;26.58;;;8.90;99.90;;;;;;5072734;28;20032;-80
2021/05/06 14:42:50;;;;;;;121.05;55.05;;;8.80;99.90;;;;;;5069791;28;20035;-80
2021/05/06 14:45:17;;;;;;;155.00;69.38;;;8.90;99.90;;;;;;5070706;28;20037;-80
2021/05/06 14:47:43;;;;;;;64.22;30.55;;;8.80;99.90;;;;;;5071160;28;20032;-82
2021/05/06 14:50:12;;;;;;;180.95;81.28;;;8.70;99.90;;;;;;5071962;28;20040;-82
2021/05/06 14:52:39;;;;;;;37.05;17.05;;;8.70;99.90;;;;;;5095859;28;20030;-76
2021/05/06 14:55:10;;;;;;;66.50;26.48;;;8.80;99.90;;;;;;5094956;28;20053;-75
2021/05/06 14:57:38;;;;;;;235.40;92.90;;;8.80;99.90;;;;;;5095498;28;20153;-80
2021/05/06 15:00:07;;;;;;;26.60;11.07;;;9.00;99.90;;;;;;5083375;28;20039;-79
2021/05/06 15:02:33;;;;;;;69.28;33.30;;;9.00;99.90;;;;;;5074742;28;20410;-79
2021/05/06 15:05:00;;;;;;;8.90;4.63;;;9.10;99.90;;;;;;5069951;28;20029;-77
2021/05/06 15:07:26;;;;;;;17.77;9.27;;;9.20;99.90;;;;;;5071842;28;20033;-81
2021/05/06 15:09:52;;;;;;;26.73;15.68;;;9.30;99.90;;;;;;5058034;28;20036;-81
2021/05/06 15:12:19;;;;;;;18.20;11.57;;;9.10;99.90;;;;;;5053768;28;20036;-81
2021/05/06 15:14:45;;;;;;;15.18;8.98;;;9.00;99.90;;;;;;5054152;28;20109;-81
2021/05/06 15:17:11;;;;;;;6.60;4.28;;;8.90;99.90;;;;;;5052151;28;20041;-81
2021/05/06 15:19:38;;;;;;;3.97;2.35;;;9.00;99.90;;;;;;5053454;28;20025;-82
2021/05/06 15:22:04;;;;;;;5.65;2.83;;;9.00;99.90;;;;;;5063539;28;20478;-81
2021/05/06 15:24:30;;;;;;;3.67;2.50;;;9.00;99.90;;;;;;5056492;28;20052;-80
2021/05/06 15:26:57;;;;;;;2.28;1.40;;;9.10;99.90;;;;;;5065294;28;20029;-81
2021/05/06 15:29:23;;;;;;;10.88;6.35;;;8.90;99.90;;;;;;5053061;28;20389;-82
2021/05/06 15:31:50;;;;;;;4.70;2.78;;;8.80;99.90;;;;;;5053980;28;20367;-80
2021/05/06 15:34:17;;;;;;;2.90;1.48;;;8.70;99.90;;;;;;5052488;28;20048;-80
2021/05/06 15:36:43;;;;;;;8.73;5.18;;;8.70;99.90;;;;;;5053816;28;20033;-79
2021/05/06 15:39:09;;;;;;;67.90;34.33;;;8.60;99.90;;;;;;5053559;28;20478;-80
2021/05/06 15:41:37;;;;;;;6.80;3.70;;;8.70;99.90;;;;;;5053615;28;20033;-79
2021/05/06 15:44:04;;;;;;;11.52;4.93;;;8.70;99.90;;;;;;5053101;28;20055;-77
2021/05/06 15:46:34;;;;;;;7.60;3.05;;;8.60;99.90;;;;;;5053699;28;20033;-80
2021/05/06 15:49:03;;;;;;;6.80;4.47;;;8.50;99.90;;;;;;5069846;28;20036;-79
2021/05/06 15:51:30;;;;;;;2.70;1.67;;;8.60;99.90;;;;;;5061477;28;20036;-80
2021/05/06 15:53:57;;;;;;;2.90;1.80;;;8.50;99.90;;;;;;5064658;28;20029;-80
2021/05/06 15:56:24;;;;;;;2.55;1.67;;;8.40;99.90;;;;;;5060609;28;20466;-81
2021/05/06 15:58:53;;;;;;;2.72;1.73;;;8.40;99.90;;;;;;5069504;28;20040;-81
2021/05/06 16:01:20;;;;;;;2.67;1.48;;;8.40;99.90;;;;;;5059358;28;20041;-80
2021/05/06 16:04:01;;;;;;;2.30;1.83;;;8.30;99.90;;;;;;5065563;28;20029;-81
2021/05/06 16:06:28;;;;;;;4.10;1.48;;;8.40;99.90;;;;;;5056040;28;20033;-81
2021/05/06 16:08:54;;;;;;;3.72;1.80;;;8.30;99.90;;;;;;5052970;28;20033;-80
2021/05/06 16:11:21;;;;;;;3.20;2.20;;;8.50;99.90;;;;;;5073223;28;20044;-80
2021/05/06 16:13:47;;;;;;;3.03;2.00;;;8.40;99.90;;;;;;5053449;28;20032;-81
2021/05/06 16:16:13;;;;;;;4.45;2.10;;;8.40;99.90;;;;;;5052751;28;20382;-81
2021/05/06 16:18:45;;;;;;;5.07;2.55;;;8.20;99.90;;;;;;5052967;28;20470;-80
2021/05/06 16:21:12;;;;;;;4.88;3.00;;;8.20;99.90;;;;;;5065932;28;20032;-84
2021/05/06 16:23:39;;;;;;;4.80;3.33;;;8.20;99.90;;;;;;5070116;28;20025;-80
2021/05/06 16:26:10;;;;;;;4.90;2.75;;;8.40;99.90;;;;;;5070200;28;20051;-77
2021/05/06 16:28:38;;;;;;;5.72;3.38;;;8.40;99.90;;;;;;5069712;28;20043;-83
2021/05/06 16:31:06;;;;;;;11.15;5.82;;;8.50;99.90;;;;;;5070691;28;20029;-79
2021/05/06 16:33:37;;;;;;;5.55;3.85;;;8.40;99.90;;;;;;5070908;28;20052;-82